Time;durP1;ratioP1;P1;durP2;ratioP2;P2;SDS_P1;SDS_P2;PMS_P1;PMS_P2;Temp;Humidity;BMP_temperature;BMP_pressure;BME280_temperature;BME280_humidity;BME280_pressure;Samples;Min_cycle;Max_cycle;Signal;HPM_P1;HPM_P2
2021/09/26 10:55:43;;;;;;;20.40;14.70;;;19.00;99.90;;;;;;4905740;29;20410;-84
2021/09/26 11:02:47;;;;;;;18.15;14.20;;;19.40;99.90;;;;;;4857523;29;20112;-83
2021/09/26 11:06:19;;;;;;;18.88;13.30;;;19.60;99.90;;;;;;4856711;29;20591;-84
2021/09/26 11:10:04;;;;;;;25.10;15.07;;;19.60;99.90;;;;;;4745375;30;20115;-83
2021/09/26 11:13:43;;;;;;;25.60;14.98;;;19.70;99.90;;;;;;4705204;30;20043;-84
2021/09/26 11:17:09;;;;;;;22.63;15.95;;;19.70;99.90;;;;;;4704861;30;20047;-85
2021/09/26 11:20:55;;;;;;;20.25;15.60;;;19.70;99.90;;;;;;4725077;30;20052;-84
2021/09/26 11:24:02;;;;;;;20.95;15.57;;;19.70;99.90;;;;;;4653752;30;20132;-83
2021/09/26 11:31:21;;;;;;;22.05;16.13;;;19.70;99.90;;;;;;4913013;23;20136;-92
2021/09/26 11:34:36;;;;;;;20.42;15.98;;;19.80;99.90;;;;;;4885490;23;20056;-85
2021/09/26 11:37:37;;;;;;;19.95;16.88;;;19.80;99.90;;;;;;4913850;29;20174;-85
2021/09/26 11:40:12;;;;;;;25.33;16.70;;;20.00;99.90;;;;;;4891017;29;20040;-86
2021/09/26 11:42:46;;;;;;;23.92;16.40;;;20.00;99.90;;;;;;4871717;29;20483;-87
2021/09/26 11:45:19;;;;;;;22.23;16.75;;;20.10;99.90;;;;;;4848800;29;20094;-87
2021/09/26 11:48:01;;;;;;;19.00;15.85;;;20.20;99.90;;;;;;4852809;29;20458;-85
2021/09/26 11:50:30;;;;;;;21.90;16.47;;;20.30;99.90;;;;;;4870886;29;20040;-85
2021/09/26 11:52:56;;;;;;;24.30;16.20;;;20.40;99.90;;;;;;4854717;29;20044;-84
2021/09/26 11:55:22;;;;;;;24.98;16.05;;;20.50;99.90;;;;;;4855466;29;20514;-85
2021/09/26 11:57:56;;;;;;;22.27;15.77;;;20.60;99.90;;;;;;4854249;29;20108;-85
2021/09/26 12:00:31;;;;;;;20.73;16.00;;;20.70;99.90;;;;;;4864379;29;20678;-85
2021/09/26 12:03:27;;;;;;;19.27;14.80;;;20.70;99.90;;;;;;4862175;29;20045;-87
2021/09/26 12:05:54;;;;;;;19.17;15.48;;;20.70;99.90;;;;;;4850205;29;20252;-86
2021/09/26 12:08:21;;;;;;;18.17;13.80;;;20.80;99.90;;;;;;4836571;29;20049;-85
2021/09/26 12:10:49;;;;;;;18.30;13.95;;;20.80;99.90;;;;;;4837787;29;20040;-85
2021/09/26 12:13:19;;;;;;;16.38;14.30;;;20.90;99.90;;;;;;4868569;29;20040;-88
2021/09/26 12:15:46;;;;;;;16.98;13.95;;;21.00;99.50;;;;;;4882787;29;20072;-87
2021/09/26 12:18:25;;;;;;;18.92;13.05;;;21.00;99.30;;;;;;4851174;29;20037;-85
2021/09/26 12:21:04;;;;;;;17.63;13.32;;;20.90;99.30;;;;;;4855077;29;20036;-84
2021/09/26 12:24:03;;;;;;;17.92;13.05;;;21.00;99.30;;;;;;4867514;29;20072;-85
2021/09/26 12:26:37;;;;;;;20.10;13.45;;;21.00;99.50;;;;;;4851967;29;20135;-86
2021/09/26 12:29:09;;;;;;;18.13;13.80;;;20.90;99.30;;;;;;4853567;29;20036;-86
2021/09/26 12:31:47;;;;;;;17.70;13.55;;;21.00;99.20;;;;;;4854918;29;20075;-86
2021/09/26 12:34:45;;;;;;;17.35;13.52;;;21.00;99.00;;;;;;4874835;29;20100;-84
2021/09/26 12:37:20;;;;;;;21.60;14.45;;;21.00;99.10;;;;;;4877166;29;20044;-86
2021/09/26 12:39:48;;;;;;;20.08;15.32;;;21.10;98.80;;;;;;4865419;29;20354;-84
2021/09/26 12:42:43;;;;;;;19.42;15.80;;;21.10;98.50;;;;;;4874242;29;20048;-84
2021/09/26 12:45:23;;;;;;;18.08;15.52;;;21.20;98.70;;;;;;4875421;29;20139;-84
2021/09/26 12:47:51;;;;;;;20.25;15.65;;;21.30;98.50;;;;;;4868751;29;20047;-86
2021/09/26 12:50:19;;;;;;;25.13;15.73;;;21.30;98.40;;;;;;4876156;29;20072;-87
2021/09/26 12:52:46;;;;;;;18.98;14.90;;;21.40;98.30;;;;;;4876089;29;20033;-85
2021/09/26 12:55:18;;;;;;;16.63;14.07;;;21.50;98.30;;;;;;4842032;29;20065;-84
2021/09/26 12:57:45;;;;;;;17.23;14.38;;;21.50;98.50;;;;;;4853969;29;20040;-85
2021/09/26 13:00:13;;;;;;;20.77;15.07;;;21.50;98.40;;;;;;4843565;29;20397;-86
2021/09/26 13:02:52;;;;;;;21.17;14.98;;;21.60;98.30;;;;;;4858760;29;20108;-87
2021/09/26 13:05:32;;;;;;;17.52;14.05;;;21.60;98.30;;;;;;4859976;29;20036;-84
2021/09/26 13:08:06;;;;;;;18.60;14.43;;;21.60;98.20;;;;;;4875905;29;20047;-87
2021/09/26 13:10:39;;;;;;;18.90;14.27;;;21.60;98.30;;;;;;4881239;29;20047;-88
2021/09/26 13:13:33;;;;;;;21.30;14.45;;;21.70;97.90;;;;;;4890530;29;20040;-87
2021/09/26 13:16:26;;;;;;;18.10;13.60;;;21.70;97.90;;;;;;4866515;29;20040;-88
2021/09/26 13:18:52;;;;;;;;;;;21.90;97.90;;;;;;4893985;29;20101;-86
2021/09/26 13:21:25;;;;;;;19.85;14.77;;;22.00;98.10;;;;;;4880994;29;19975;-87
2021/09/26 13:24:25;;;;;;;19.77;14.85;;;22.10;97.20;;;;;;4882110;29;20407;-88
2021/09/26 13:26:51;;;;;;;16.58;14.38;;;22.10;97.20;;;;;;4860160;29;20044;-87
2021/09/26 13:29:27;;;;;;;17.45;14.27;;;22.10;97.20;;;;;;4846501;29;20544;-86
2021/09/26 13:32:00;;;;;;;16.33;13.75;;;22.10;97.20;;;;;;4861576;29;20047;-87
2021/09/26 13:34:35;;;;;;;19.45;14.93;;;22.20;97.20;;;;;;4878821;29;20658;-87
2021/09/26 13:37:20;;;;;;;17.85;14.23;;;22.30;96.90;;;;;;4871715;29;20113;-84
2021/09/26 13:39:50;;;;;;;18.75;14.25;;;22.30;96.90;;;;;;4860018;29;20040;-86
2021/09/26 13:42:19;;;;;;;17.55;14.90;;;22.40;96.70;;;;;;4871740;29;20504;-86
2021/09/26 13:44:46;;;;;;;18.30;13.68;;;22.40;96.40;;;;;;4864556;29;20042;-87
2021/09/26 13:47:13;;;;;;;17.50;14.27;;;22.60;96.60;;;;;;4881001;29;20116;-87
2021/09/26 13:49:38;;;;;;;24.27;14.77;;;22.60;96.30;;;;;;4853159;29;20040;-89
2021/09/26 13:52:05;;;;;;;16.92;14.38;;;22.60;96.00;;;;;;4852261;29;20132;-87
2021/09/26 13:54:31;;;;;;;17.08;14.52;;;22.60;95.90;;;;;;4872883;29;20048;-87
2021/09/26 13:56:58;;;;;;;15.98;13.50;;;22.60;95.80;;;;;;4881225;29;20127;-87
2021/09/26 13:59:24;;;;;;;15.85;14.25;;;22.70;95.70;;;;;;4881349;29;20076;-87
2021/09/26 14:01:53;;;;;;;16.52;13.65;;;22.80;95.80;;;;;;4849793;29;20041;-87
2021/09/26 14:04:19;;;;;;;18.73;15.07;;;22.90;95.90;;;;;;4864410;29;20040;-88
2021/09/26 14:06:45;;;;;;;19.45;14.02;;;22.90;95.30;;;;;;4862364;29;20157;-89
2021/09/26 14:09:11;;;;;;;19.10;14.63;;;22.80;95.00;;;;;;4874583;29;20381;-88
2021/09/26 14:11:38;;;;;;;15.18;13.13;;;22.80;95.00;;;;;;4876336;29;20036;-88
2021/09/26 14:14:04;;;;;;;20.77;12.98;;;22.80;94.90;;;;;;4867422;29;20107;-89
2021/09/26 14:16:31;;;;;;;18.58;14.27;;;22.80;94.70;;;;;;4877047;29;20064;-92
2021/09/26 14:18:57;;;;;;;20.10;14.18;;;22.80;94.50;;;;;;4872621;29;20045;-93
2021/09/26 14:21:24;;;;;;;16.58;13.25;;;22.80;94.20;;;;;;4867466;29;20115;-89
2021/09/26 14:23:53;;;;;;;17.48;13.95;;;22.70;94.00;;;;;;4862209;29;20051;-87
2021/09/26 14:26:21;;;;;;;17.33;13.95;;;22.70;94.10;;;;;;4868259;29;20076;-88
2021/09/26 14:28:48;;;;;;;15.88;13.45;;;22.70;94.20;;;;;;4877046;29;20570;-87
2021/09/26 14:31:16;;;;;;;19.50;13.70;;;22.80;94.40;;;;;;4849476;29;20511;-89
2021/09/26 14:33:46;;;;;;;16.40;13.63;;;22.80;94.40;;;;;;4871988;29;20055;-88
2021/09/26 14:36:13;;;;;;;17.65;13.80;;;22.80;94.30;;;;;;4880403;29;20048;-87
2021/09/26 14:38:40;;;;;;;21.20;14.65;;;22.80;94.30;;;;;;4861222;29;20527;-86
2021/09/26 14:41:11;;;;;;;18.73;14.90;;;22.70;94.40;;;;;;4864450;29;20137;-86
2021/09/26 14:43:37;;;;;;;17.88;14.40;;;22.60;94.50;;;;;;4876827;29;20040;-86
2021/09/26 14:46:03;;;;;;;16.92;14.10;;;22.60;94.40;;;;;;4868245;29;20044;-86
2021/09/26 14:48:29;;;;;;;17.17;14.23;;;22.60;94.50;;;;;;4878536;29;20572;-86
2021/09/26 14:50:56;;;;;;;19.05;14.27;;;22.60;94.70;;;;;;4857888;29;20043;-88
2021/09/26 14:53:22;;;;;;;22.92;15.07;;;22.60;94.90;;;;;;4851523;29;20207;-86
2021/09/26 14:55:48;;;;;;;18.85;13.90;;;22.70;94.90;;;;;;4866330;29;20052;-86
2021/09/26 14:58:15;;;;;;;17.27;13.70;;;22.80;94.90;;;;;;4851876;29;20492;-87
2021/09/26 15:00:42;;;;;;;17.75;13.80;;;22.90;94.70;;;;;;4861691;29;20044;-89
2021/09/26 15:03:08;;;;;;;21.80;14.45;;;23.00;94.70;;;;;;4863515;29;20052;-87
2021/09/26 15:05:34;;;;;;;16.35;14.48;;;23.10;94.30;;;;;;4873436;29;20181;-86
2021/09/26 15:08:04;;;;;;;19.05;13.70;;;23.00;94.10;;;;;;4881840;29;20128;-88
2021/09/26 15:10:30;;;;;;;19.60;13.43;;;23.00;94.10;;;;;;4852199;29;20041;-91
2021/09/26 15:12:57;;;;;;;17.45;14.00;;;22.90;93.90;;;;;;4866308;29;20048;-88
2021/09/26 15:15:28;;;;;;;15.10;13.48;;;22.90;93.80;;;;;;4879561;29;20040;-87
2021/09/26 15:17:54;;;;;;;16.92;12.65;;;22.80;93.90;;;;;;4877979;29;20048;-90
2021/09/26 15:20:23;;;;;;;14.38;12.85;;;22.80;93.90;;;;;;4848638;29;20047;-88
2021/09/26 15:22:49;;;;;;;17.80;13.98;;;22.70;94.10;;;;;;4869478;29;20041;-87
2021/09/26 15:25:19;;;;;;;18.95;14.98;;;22.60;94.30;;;;;;4841641;29;20123;-86
2021/09/26 15:27:45;;;;;;;19.70;15.43;;;22.50;94.20;;;;;;4872951;29;20045;-87
2021/09/26 15:30:12;;;;;;;18.33;14.50;;;22.40;94.40;;;;;;4870424;29;20055;-90
2021/09/26 15:32:38;;;;;;;18.65;15.10;;;22.30;94.50;;;;;;4841601;29;20496;-87
2021/09/26 15:35:06;;;;;;;21.27;15.18;;;22.30;94.60;;;;;;4844901;29;20571;-87
2021/09/26 15:37:34;;;;;;;21.35;15.00;;;22.20;94.80;;;;;;4869450;29;20407;-86
2021/09/26 15:40:03;;;;;;;19.17;15.07;;;22.10;94.90;;;;;;4847280;29;20401;-88
2021/09/26 15:42:31;;;;;;;18.80;15.85;;;22.10;95.20;;;;;;4865504;29;20044;-88
2021/09/26 15:44:56;;;;;;;19.50;15.18;;;22.00;95.20;;;;;;4848811;29;20036;-86
2021/09/26 15:47:22;;;;;;;19.13;15.45;;;22.00;95.40;;;;;;4853760;29;20047;-86
2021/09/26 15:49:48;;;;;;;17.02;12.90;;;21.90;95.50;;;;;;4837022;29;20068;-87
2021/09/26 15:52:14;;;;;;;20.27;14.30;;;21.90;95.70;;;;;;4867116;29;20052;-88
2021/09/26 15:54:40;;;;;;;20.33;15.88;;;21.80;96.10;;;;;;4864330;29;20044;-87
2021/09/26 15:57:06;;;;;;;36.13;21.52;;;21.80;96.20;;;;;;4838357;29;20052;-87
2021/09/26 15:59:31;;;;;;;38.03;23.48;;;21.80;96.50;;;;;;4854317;29;20044;-86
2021/09/26 16:02:02;;;;;;;19.73;14.43;;;21.70;96.60;;;;;;4854314;29;20081;-85
2021/09/26 16:04:27;;;;;;;22.20;17.10;;;21.60;96.90;;;;;;4859501;29;20067;-83
2021/09/26 16:06:53;;;;;;;30.15;20.90;;;21.60;97.10;;;;;;4855745;29;20131;-88
2021/09/26 16:09:20;;;;;;;32.00;21.08;;;21.50;97.20;;;;;;4837245;29;20051;-86
2021/09/26 16:11:45;;;;;;;36.65;22.08;;;21.50;97.40;;;;;;4855528;29;20044;-88
2021/09/26 16:14:11;;;;;;;19.40;15.32;;;21.40;97.60;;;;;;4856861;29;20040;-84
2021/09/26 16:16:37;;;;;;;19.73;15.05;;;21.40;97.70;;;;;;4857553;29;20483;-90
2021/09/26 16:19:03;;;;;;;24.17;17.65;;;21.30;97.70;;;;;;4857327;29;20043;-86
2021/09/26 16:21:28;;;;;;;27.70;18.05;;;21.30;97.80;;;;;;4855249;29;20037;-87
2021/09/26 16:23:54;;;;;;;27.33;18.08;;;21.30;98.00;;;;;;4853541;29;20044;-85
2021/09/26 16:26:20;;;;;;;30.58;16.77;;;21.20;98.10;;;;;;4859199;29;20040;-85
2021/09/26 16:28:46;;;;;;;25.02;16.88;;;21.20;98.40;;;;;;4856900;29;20048;-83
2021/09/26 16:31:12;;;;;;;20.70;16.60;;;21.20;98.90;;;;;;4868713;29;20048;-86
2021/09/26 16:33:41;;;;;;;20.45;16.10;;;21.10;98.80;;;;;;4868010;29;20036;-85
2021/09/26 16:36:09;;;;;;;24.80;18.90;;;21.10;98.90;;;;;;4853138;29;20043;-85
2021/09/26 16:38:36;;;;;;;22.38;17.50;;;21.10;99.00;;;;;;4871799;29;20037;-88
2021/09/26 16:41:02;;;;;;;18.88;16.48;;;21.00;99.00;;;;;;4870684;29;20040;-88
2021/09/26 16:43:28;;;;;;;19.95;15.98;;;21.00;99.10;;;;;;4863931;29;20085;-89
2021/09/26 16:45:55;;;;;;;18.33;15.15;;;21.00;99.20;;;;;;4859635;29;20493;-86
2021/09/26 16:48:21;;;;;;;17.15;14.60;;;20.90;99.20;;;;;;4867240;29;20044;-88
2021/09/26 16:50:53;;;;;;;19.25;13.43;;;20.80;99.20;;;;;;4851420;29;20045;-89
2021/09/26 16:53:20;;;;;;;17.92;14.95;;;20.90;99.40;;;;;;4869621;29;20603;-88
2021/09/26 16:55:47;;;;;;;19.17;15.80;;;20.80;99.50;;;;;;4873938;29;20040;-86
2021/09/26 16:58:13;;;;;;;18.27;13.90;;;20.80;99.70;;;;;;4885040;29;20049;-85
2021/09/26 17:00:39;;;;;;;17.80;14.95;;;20.80;99.80;;;;;;4872363;29;20033;-85
2021/09/26 17:03:05;;;;;;;22.00;17.15;;;20.70;99.90;;;;;;4855634;29;20336;-87
2021/09/26 17:05:32;;;;;;;23.33;18.08;;;20.70;99.90;;;;;;4853679;29;20407;-86
2021/09/26 17:07:59;;;;;;;25.55;20.23;;;20.60;99.90;;;;;;4850941;29;20053;-90
2021/09/26 17:10:27;;;;;;;22.42;19.95;;;20.60;99.90;;;;;;4869497;29;20047;-87
2021/09/26 17:12:54;;;;;;;20.55;14.70;;;20.50;99.90;;;;;;4864982;29;20415;-87
2021/09/26 17:15:35;;;;;;;36.83;18.42;;;20.40;99.90;;;;;;4872836;29;20048;-87
2021/09/26 17:18:08;;;;;;;34.30;20.05;;;20.30;99.90;;;;;;4861795;29;20071;-86
2021/09/26 17:20:41;;;;;;;27.98;19.52;;;20.00;99.90;;;;;;4870377;29;20040;-86
2021/09/26 17:23:13;;;;;;;22.45;16.63;;;19.80;99.90;;;;;;4861729;29;20331;-86
2021/09/26 17:25:50;;;;;;;19.70;16.00;;;19.60;99.90;;;;;;4869127;29;20033;-86
2021/09/26 17:28:16;;;;;;;26.80;18.75;;;19.50;99.90;;;;;;4883501;29;20552;-86
2021/09/26 17:30:44;;;;;;;25.67;19.33;;;19.30;99.90;;;;;;4868183;29;20051;-85
2021/09/26 17:33:11;;;;;;;30.67;20.38;;;19.30;99.90;;;;;;4847518;29;20029;-85
2021/09/26 17:35:37;;;;;;;34.42;21.65;;;19.10;99.90;;;;;;4873206;29;20052;-86
2021/09/26 17:38:08;;;;;;;28.85;19.65;;;19.10;99.90;;;;;;4864990;29;20049;-86
2021/09/26 17:40:34;;;;;;;29.90;20.30;;;19.00;99.90;;;;;;4884519;29;20435;-86
2021/09/26 17:43:07;;;;;;;45.72;24.25;;;19.00;99.90;;;;;;4841153;29;20092;-87
2021/09/26 17:45:33;;;;;;;34.88;22.77;;;18.90;99.90;;;;;;4867809;29;20036;-87
2021/09/26 17:48:01;;;;;;;26.38;21.08;;;18.90;99.90;;;;;;4853578;29;20514;-87
2021/09/26 17:50:31;;;;;;;44.90;23.92;;;18.80;99.90;;;;;;4847733;29;20052;-87
2021/09/26 17:52:57;;;;;;;32.45;22.13;;;18.80;99.90;;;;;;4871579;29;20654;-87
2021/09/26 17:55:24;;;;;;;22.73;18.25;;;18.70;99.90;;;;;;4851228;29;20100;-86
2021/09/26 17:57:51;;;;;;;25.30;20.02;;;18.70;99.90;;;;;;4862664;29;20113;-87
2021/09/26 18:00:28;;;;;;;29.65;23.42;;;18.70;99.90;;;;;;4860318;29;20052;-87
2021/09/26 18:03:06;;;;;;;34.63;23.35;;;18.60;99.90;;;;;;4877336;29;20411;-87
2021/09/26 18:06:02;;;;;;;39.78;24.42;;;18.60;99.90;;;;;;4874347;29;20036;-86
2021/09/26 18:08:50;;;;;;;45.85;26.42;;;18.60;99.90;;;;;;4880783;29;20059;-87
2021/09/26 18:11:18;;;;;;;25.35;21.27;;;18.60;99.90;;;;;;4865553;29;20088;-87
2021/09/26 18:13:48;;;;;;;25.75;21.33;;;18.60;99.90;;;;;;4874399;29;20056;-87
2021/09/26 18:16:25;;;;;;;26.92;22.83;;;18.50;99.90;;;;;;4872602;29;20044;-87
2021/09/26 18:18:52;;;;;;;30.48;24.15;;;18.50;99.90;;;;;;4846780;29;20040;-86
2021/09/26 18:21:18;;;;;;;34.53;26.58;;;18.50;99.90;;;;;;4856498;29;20041;-86
2021/09/26 18:23:50;;;;;;;33.75;24.90;;;18.50;99.90;;;;;;4861359;29;20427;-86
2021/09/26 18:26:21;;;;;;;62.60;30.38;;;18.60;99.90;;;;;;4856756;29;20045;-87
2021/09/26 18:28:47;;;;;;;30.73;25.33;;;18.60;99.90;;;;;;4869814;29;20092;-86
2021/09/26 18:31:15;;;;;;;40.63;30.92;;;18.50;99.90;;;;;;4870420;29;20499;-86
2021/09/26 18:33:41;;;;;;;39.13;27.98;;;18.60;99.90;;;;;;4867489;29;20387;-86
2021/09/26 18:36:11;;;;;;;39.10;27.90;;;18.50;99.90;;;;;;4874553;29;20111;-86
2021/09/26 18:38:40;;;;;;;35.30;26.17;;;18.60;99.90;;;;;;4873750;29;20037;-86
2021/09/26 18:41:11;;;;;;;35.67;26.98;;;18.50;99.90;;;;;;4874143;29;20070;-86
2021/09/26 18:43:38;;;;;;;57.35;32.83;;;18.50;99.90;;;;;;4872452;29;20074;-86
2021/09/26 18:46:05;;;;;;;35.25;27.55;;;18.50;99.90;;;;;;4860038;29;20048;-86
2021/09/26 18:48:33;;;;;;;42.08;30.27;;;18.50;99.90;;;;;;4876613;29;20041;-86
2021/09/26 18:50:59;;;;;;;37.58;28.88;;;18.50;99.90;;;;;;4861971;29;20060;-86
2021/09/26 18:53:25;;;;;;;39.60;28.70;;;18.50;99.90;;;;;;4854635;29;20047;-85
2021/09/26 18:55:51;;;;;;;39.47;27.95;;;18.50;99.90;;;;;;4860686;29;20036;-86
2021/09/26 18:58:18;;;;;;;43.08;28.58;;;18.50;99.90;;;;;;4857464;29;20426;-86
2021/09/26 19:00:44;;;;;;;38.00;25.90;;;18.50;99.90;;;;;;4871673;29;20068;-86
2021/09/26 19:03:11;;;;;;;38.05;28.60;;;18.50;99.90;;;;;;4871535;29;20055;-86
2021/09/26 19:05:38;;;;;;;41.50;30.10;;;18.40;99.90;;;;;;4877378;29;20056;-86
2021/09/26 19:08:05;;;;;;;38.15;26.45;;;18.40;99.90;;;;;;4872289;29;20458;-85
2021/09/26 19:10:32;;;;;;;37.40;28.13;;;18.40;99.90;;;;;;4841166;29;20463;-85
2021/09/26 19:13:02;;;;;;;39.05;28.80;;;18.40;99.90;;;;;;4859000;29;20037;-85
2021/09/26 19:15:29;;;;;;;33.75;27.73;;;18.40;99.90;;;;;;4852905;29;20500;-86
2021/09/26 19:17:56;;;;;;;43.30;31.25;;;18.40;99.90;;;;;;4848388;29;20266;-86
2021/09/26 19:20:22;;;;;;;39.85;29.08;;;18.40;99.90;;;;;;4836324;29;20076;-86
2021/09/26 19:22:48;;;;;;;31.02;26.02;;;18.40;99.90;;;;;;4820472;29;20071;-87
2021/09/26 19:25:22;;;;;;;32.35;25.52;;;18.40;99.90;;;;;;4871274;29;20040;-86
2021/09/26 19:27:47;;;;;;;33.42;27.63;;;18.40;99.90;;;;;;4870019;29;20045;-84
2021/09/26 19:30:16;;;;;;;34.22;26.60;;;18.30;99.90;;;;;;4856872;29;20036;-87
2021/09/26 19:32:43;;;;;;;37.15;29.40;;;18.30;99.90;;;;;;4855998;29;20060;-87
2021/09/26 19:35:13;;;;;;;35.90;27.83;;;18.30;99.90;;;;;;4858296;29;20080;-86
2021/09/26 19:37:39;;;;;;;50.05;31.45;;;18.30;99.90;;;;;;4858463;29;20055;-86
2021/09/26 19:40:06;;;;;;;30.23;26.83;;;18.30;99.90;;;;;;4871305;29;20041;-86
2021/09/26 19:42:32;;;;;;;31.02;25.20;;;18.30;99.90;;;;;;4860836;29;20052;-88
2021/09/26 19:44:58;;;;;;;37.75;27.23;;;18.30;99.90;;;;;;4840874;29;20412;-87
2021/09/26 19:47:24;;;;;;;46.45;30.92;;;18.30;99.90;;;;;;4841194;29;20140;-86
2021/09/26 19:49:50;;;;;;;42.80;27.95;;;18.30;99.90;;;;;;4857607;29;20127;-87
2021/09/26 19:52:15;;;;;;;33.47;27.88;;;18.20;99.90;;;;;;4844798;29;20124;-86
2021/09/26 19:54:41;;;;;;;36.13;28.10;;;18.30;99.90;;;;;;4825876;29;20048;-87
2021/09/26 19:57:07;;;;;;;35.95;26.92;;;18.20;99.90;;;;;;4846959;29;20056;-88
2021/09/26 19:59:33;;;;;;;30.90;25.02;;;18.20;99.90;;;;;;4842962;29;20041;-88
2021/09/26 20:01:59;;;;;;;39.50;29.35;;;18.20;99.90;;;;;;4864747;29;20108;-86
2021/09/26 20:04:25;;;;;;;35.70;28.42;;;18.20;99.90;;;;;;4858947;29;20563;-85
2021/09/26 20:06:50;;;;;;;36.42;28.77;;;18.20;99.90;;;;;;4837058;29;20053;-86
2021/09/26 20:09:16;;;;;;;37.22;28.08;;;18.20;99.90;;;;;;4867672;29;20128;-87
2021/09/26 20:11:43;;;;;;;31.90;25.23;;;18.10;99.90;;;;;;4843701;29;20064;-87
2021/09/26 20:14:09;;;;;;;33.60;26.98;;;18.20;99.90;;;;;;4865400;29;20048;-87
2021/09/26 20:16:38;;;;;;;46.90;28.85;;;18.10;99.90;;;;;;4843289;29;20068;-88
2021/09/26 20:19:07;;;;;;;30.65;26.85;;;18.10;99.90;;;;;;4856534;29;20051;-87
2021/09/26 20:21:33;;;;;;;32.03;26.38;;;18.10;99.90;;;;;;4871530;29;20095;-87
2021/09/26 20:23:59;;;;;;;34.70;28.58;;;18.10;99.90;;;;;;4848042;29;20044;-88
2021/09/26 20:26:25;;;;;;;39.33;29.95;;;18.10;99.90;;;;;;4864592;29;20180;-88
2021/09/26 20:28:51;;;;;;;33.95;27.88;;;18.10;99.90;;;;;;4854699;29;20123;-87
2021/09/26 20:31:18;;;;;;;34.60;29.42;;;18.00;99.90;;;;;;4856164;29;20041;-87
2021/09/26 20:33:51;;;;;;;38.45;29.73;;;18.00;99.90;;;;;;4851843;29;20036;-86
2021/09/26 20:36:18;;;;;;;42.85;31.70;;;18.00;99.90;;;;;;4850990;29;20500;-88
2021/09/26 20:38:44;;;;;;;47.85;36.20;;;18.00;99.90;;;;;;4850202;29;20045;-88
2021/09/26 20:41:10;;;;;;;47.92;35.42;;;18.00;99.90;;;;;;4830227;29;20037;-89
2021/09/26 20:43:36;;;;;;;45.10;34.47;;;17.90;99.90;;;;;;4838177;29;20103;-89
2021/09/26 20:46:01;;;;;;;49.60;37.70;;;17.90;99.90;;;;;;4850828;29;19979;-87
2021/09/26 20:48:27;;;;;;;46.63;34.13;;;17.90;99.90;;;;;;4845947;29;20040;-87
2021/09/26 20:50:56;;;;;;;46.35;34.67;;;17.90;99.90;;;;;;4852857;29;20196;-87
2021/09/26 20:53:24;;;;;;;49.17;37.50;;;17.80;99.90;;;;;;4866310;29;20071;-88
2021/09/26 20:55:50;;;;;;;50.47;37.72;;;17.80;99.90;;;;;;4837978;29;20574;-86
2021/09/26 20:58:17;;;;;;;50.47;37.25;;;17.80;99.90;;;;;;4868509;29;20559;-87
2021/09/26 21:00:43;;;;;;;44.83;37.03;;;17.80;99.90;;;;;;4850777;29;20471;-87
2021/09/26 21:03:09;;;;;;;43.67;34.85;;;17.80;99.90;;;;;;4851024;29;20570;-87
2021/09/26 21:05:35;;;;;;;45.20;36.38;;;17.70;99.90;;;;;;4864542;29;20484;-86
2021/09/26 21:08:01;;;;;;;48.53;37.70;;;17.70;99.90;;;;;;4861745;29;20117;-88
2021/09/26 21:10:30;;;;;;;40.10;33.60;;;17.80;99.90;;;;;;4852117;29;20105;-86
2021/09/26 21:12:57;;;;;;;46.65;36.85;;;17.70;99.90;;;;;;4851124;29;20040;-86
2021/09/26 21:15:26;;;;;;;60.15;40.45;;;17.70;99.90;;;;;;4847225;29;20060;-86
2021/09/26 21:17:53;;;;;;;47.63;36.78;;;17.70;99.90;;;;;;4867875;29;20055;-86
2021/09/26 21:20:23;;;;;;;48.25;37.42;;;17.70;99.90;;;;;;4863677;29;20093;-86
2021/09/26 21:22:50;;;;;;;43.60;35.28;;;17.70;99.90;;;;;;4874023;29;21063;-86
2021/09/26 21:25:17;;;;;;;70.40;40.78;;;17.70;99.90;;;;;;4870897;29;20044;-86
2021/09/26 21:27:43;;;;;;;60.45;39.35;;;17.70;99.90;;;;;;4866952;29;20517;-87
2021/09/26 21:30:11;;;;;;;59.72;38.80;;;17.70;99.90;;;;;;4848563;29;20041;-86
2021/09/26 21:32:37;;;;;;;56.30;40.38;;;17.70;99.90;;;;;;4849653;29;20044;-87
2021/09/26 21:35:04;;;;;;;57.78;42.60;;;17.70;99.90;;;;;;4838297;29;20036;-88
2021/09/26 21:37:30;;;;;;;60.15;44.25;;;17.60;99.90;;;;;;4870828;29;20045;-87
2021/09/26 21:39:56;;;;;;;57.03;41.42;;;17.60;99.90;;;;;;4870470;29;20048;-87
2021/09/26 21:42:21;;;;;;;53.45;42.60;;;17.60;99.90;;;;;;4852104;29;20116;-87
2021/09/26 21:44:47;;;;;;;64.68;43.28;;;17.60;99.90;;;;;;4852323;29;20410;-87
2021/09/26 21:47:13;;;;;;;56.75;42.65;;;17.60;99.90;;;;;;4851196;29;20155;-88
2021/09/26 21:49:40;;;;;;;60.92;43.40;;;17.50;99.90;;;;;;4850158;29;20483;-87
2021/09/26 21:52:06;;;;;;;59.95;40.65;;;17.50;99.90;;;;;;4868283;29;20507;-87
2021/09/26 21:54:32;;;;;;;54.42;39.47;;;17.50;99.90;;;;;;4837239;29;20041;-87
2021/09/26 21:56:57;;;;;;;57.65;39.13;;;17.50;99.90;;;;;;4853674;29;20044;-87
2021/09/26 21:59:23;;;;;;;62.80;42.25;;;17.50;99.90;;;;;;4850504;29;20518;-86
2021/09/26 22:01:49;;;;;;;62.72;42.17;;;17.50;99.90;;;;;;4840580;29;20044;-87
2021/09/26 22:04:15;;;;;;;61.15;39.78;;;17.50;99.90;;;;;;4840451;29;20040;-87
2021/09/26 22:06:41;;;;;;;58.08;39.88;;;17.50;99.90;;;;;;4837682;29;20051;-87
2021/09/26 22:09:07;;;;;;;60.03;39.75;;;17.40;99.90;;;;;;4848585;29;20062;-87
2021/09/26 22:11:33;;;;;;;58.33;40.85;;;17.40;99.90;;;;;;4850036;29;20044;-87
2021/09/26 22:13:59;;;;;;;56.20;41.10;;;17.40;99.90;;;;;;4837760;29;20040;-87
2021/09/26 22:16:27;;;;;;;52.50;39.58;;;17.40;99.90;;;;;;4849969;29;20540;-87
2021/09/26 22:18:55;;;;;;;70.53;39.70;;;17.40;99.90;;;;;;4866829;29;20037;-87
2021/09/26 22:21:24;;;;;;;68.80;41.25;;;17.30;99.90;;;;;;4867119;29;20043;-87
2021/09/26 22:23:55;;;;;;;87.85;46.25;;;17.30;99.90;;;;;;4854752;29;20537;-87
2021/09/26 22:26:21;;;;;;;56.97;39.47;;;17.30;99.90;;;;;;4866723;29;20037;-87
2021/09/26 22:28:50;;;;;;;50.33;36.53;;;17.30;99.90;;;;;;4853621;29;20417;-87
2021/09/26 22:31:17;;;;;;;66.25;39.72;;;17.30;99.90;;;;;;4880367;29;20049;-87
2021/09/26 22:33:45;;;;;;;57.33;38.85;;;17.30;99.90;;;;;;4853755;29;20033;-87
2021/09/26 22:36:14;;;;;;;51.15;37.78;;;17.20;99.90;;;;;;4837330;29;20048;-86
2021/09/26 22:38:41;;;;;;;55.38;38.95;;;17.20;99.90;;;;;;4867593;29;20119;-89
2021/09/26 22:41:08;;;;;;;53.05;38.22;;;17.20;99.90;;;;;;4854568;29;20467;-88
2021/09/26 22:43:37;;;;;;;53.47;38.80;;;17.20;99.90;;;;;;4854211;29;20127;-87
2021/09/26 22:46:03;;;;;;;55.92;39.90;;;17.20;99.90;;;;;;4850102;29;20049;-87
2021/09/26 22:48:29;;;;;;;59.25;39.42;;;17.10;99.90;;;;;;4852720;29;20100;-87
2021/09/26 22:50:58;;;;;;;47.80;34.78;;;17.10;99.90;;;;;;4838722;29;20032;-87
2021/09/26 22:53:24;;;;;;;57.60;38.38;;;17.10;99.90;;;;;;4868983;29;20037;-87
2021/09/26 22:55:51;;;;;;;56.20;38.50;;;17.10;99.90;;;;;;4850519;29;20044;-88
2021/09/26 22:58:20;;;;;;;57.65;39.60;;;17.10;99.90;;;;;;4866831;29;20152;-88
2021/09/26 23:01:07;;;;;;;58.72;40.10;;;17.00;99.90;;;;;;4867818;29;20048;-87
2021/09/26 23:03:36;;;;;;;68.97;42.47;;;17.00;99.90;;;;;;4849483;29;20036;-87
2021/09/26 23:06:03;;;;;;;67.30;42.53;;;17.00;99.90;;;;;;4846983;29;20139;-88
2021/09/26 23:08:29;;;;;;;57.25;40.88;;;17.00;99.90;;;;;;4835737;29;20484;-87
2021/09/26 23:10:55;;;;;;;57.28;40.40;;;16.90;99.90;;;;;;4854841;29;20483;-88
2021/09/26 23:13:21;;;;;;;59.58;40.30;;;16.90;99.90;;;;;;4840948;29;20097;-88
2021/09/26 23:15:49;;;;;;;69.28;42.42;;;16.90;99.90;;;;;;4853745;29;20051;-89
2021/09/26 23:18:15;;;;;;;62.33;41.70;;;16.90;99.90;;;;;;4852597;29;20068;-88
2021/09/26 23:20:48;;;;;;;53.72;38.78;;;16.90;99.90;;;;;;4846081;29;20040;-88
2021/09/26 23:23:16;;;;;;;57.33;39.83;;;16.80;99.90;;;;;;4855480;29;20052;-88
2021/09/26 23:25:42;;;;;;;56.65;39.40;;;16.80;99.90;;;;;;4854380;29;20161;-88
2021/09/26 23:28:09;;;;;;;61.15;40.28;;;16.80;99.90;;;;;;4838527;29;20717;-88
2021/09/26 23:30:36;;;;;;;57.15;38.97;;;16.80;99.90;;;;;;4834557;29;20037;-88
2021/09/26 23:33:03;;;;;;;57.55;40.35;;;16.80;99.90;;;;;;4855794;29;20116;-87
2021/09/26 23:35:30;;;;;;;58.35;39.95;;;16.80;99.90;;;;;;4868423;29;20040;-88
2021/09/26 23:37:56;;;;;;;59.28;38.83;;;16.70;99.90;;;;;;4851641;29;20040;-87
2021/09/26 23:40:35;;;;;;;54.63;39.03;;;16.70;99.90;;;;;;4845494;29;20045;-85
2021/09/26 23:43:02;;;;;;;56.75;38.63;;;16.60;99.90;;;;;;4876318;29;20044;-85
2021/09/26 23:45:29;;;;;;;59.45;38.00;;;16.60;99.90;;;;;;4881274;29;20168;-87
2021/09/26 23:47:56;;;;;;;59.13;38.90;;;16.50;99.90;;;;;;4854606;29;20041;-88